sensor_id;sensor_type;location;lat;lon;timestamp;pressure;altitude;pressure_sealevel;temperature;humidity
22605;BME280;11469;49.024;8.246;2024-01-15T00:00:32;99576.41;;;-2.24;100.00
22605;BME280;11469;49.024;8.246;2024-01-15T00:02:58;99575.88;;;-2.26;100.00
22605;BME280;11469;49.024;8.246;2024-01-15T00:05:23;99576.16;;;-2.28;100.00
22605;BME280;11469;49.024;8.246;2024-01-15T00:07:48;99580.47;;;-2.22;100.00
22605;BME280;11469;49.024;8.246;2024-01-15T00:10:14;99576.53;;;-2.16;100.00
22605;BME280;11469;49.024;8.246;2024-01-15T00:12:39;99579.06;;;-2.19;100.00
22605;BME280;11469;49.024;8.246;2024-01-15T00:15:05;99561.47;;;-2.18;100.00
22605;BME280;11469;49.024;8.246;2024-01-15T00:17:31;99575.81;;;-2.21;100.00
22605;BME280;11469;49.024;8.246;2024-01-15T00:19:56;99566.38;;;-2.15;100.00
22605;BME280;11469;49.024;8.246;2024-01-15T00:22:23;99567.03;;;-2.23;100.00
22605;BME280;11469;49.024;8.246;2024-01-15T00:24:48;99564.91;;;-2.26;100.00
22605;BME280;11469;49.024;8.246;2024-01-15T00:27:14;99552.81;;;-2.25;100.00
22605;BME280;11469;49.024;8.246;2024-01-15T00:29:39;99559.41;;;-2.26;100.00
22605;BME280;11469;49.024;8.246;2024-01-15T00:32:05;99558.81;;;-2.23;100.00
22605;BME280;11469;49.024;8.246;2024-01-15T00:34:30;99548.72;;;-2.28;100.00
22605;BME280;11469;49.024;8.246;2024-01-15T00:36:56;99537.53;;;-2.31;100.00
22605;BME280;11469;49.024;8.246;2024-01-15T00:39:21;99541.66;;;-2.34;100.00
22605;BME280;11469;49.024;8.246;2024-01-15T00:41:47;99523.78;;;-2.31;100.00
22605;BME280;11469;49.024;8.246;2024-01-15T00:44:12;99513.13;;;-2.33;100.00
22605;BME280;11469;49.024;8.246;2024-01-15T00:46:45;99516.16;;;-2.35;100.00
22605;BME280;11469;49.024;8.246;2024-01-15T00:49:13;99517.91;;;-2.39;100.00
22605;BME280;11469;49.024;8.246;2024-01-15T00:51:39;99519.09;;;-2.45;100.00
22605;BME280;11469;49.024;8.246;2024-01-15T00:54:05;99526.19;;;-2.44;100.00
22605;BME280;11469;49.024;8.246;2024-01-15T00:56:30;99516.19;;;-2.53;100.00
22605;BME280;11469;49.024;8.246;2024-01-15T00:58:56;99520.25;;;-2.51;100.00
22605;BME280;11469;49.024;8.246;2024-01-15T01:01:21;99515.38;;;-2.54;100.00
22605;BME280;11469;49.024;8.246;2024-01-15T01:03:47;99507.44;;;-2.55;100.00
22605;BME280;11469;49.024;8.246;2024-01-15T01:06:12;99509.34;;;-2.56;100.00
22605;BME280;11469;49.024;8.246;2024-01-15T01:08:39;99512.63;;;-2.54;100.00
22605;BME280;11469;49.024;8.246;2024-01-15T01:11:05;99504.69;;;-2.55;100.00
22605;BME280;11469;49.024;8.246;2024-01-15T01:13:32;99506.03;;;-2.53;100.00
22605;BME280;11469;49.024;8.246;2024-01-15T01:15:57;99510.78;;;-2.58;100.00
22605;BME280;11469;49.024;8.246;2024-01-15T01:18:23;99504.75;;;-2.60;100.00
22605;BME280;11469;49.024;8.246;2024-01-15T01:20:48;99506.69;;;-2.61;100.00
22605;BME280;11469;49.024;8.246;2024-01-15T01:23:14;99505.28;;;-2.58;100.00
22605;BME280;11469;49.024;8.246;2024-01-15T01:25:39;99504.25;;;-2.62;100.00
22605;BME280;11469;49.024;8.246;2024-01-15T01:28:05;99513.59;;;-2.63;100.00
22605;BME280;11469;49.024;8.246;2024-01-15T01:30:30;99511.88;;;-2.59;100.00
22605;BME280;11469;49.024;8.246;2024-01-15T01:32:55;99509.22;;;-2.64;100.00
22605;BME280;11469;49.024;8.246;2024-01-15T01:35:21;99500.75;;;-2.68;100.00
22605;BME280;11469;49.024;8.246;2024-01-15T01:37:46;99504.59;;;-2.69;100.00
22605;BME280;11469;49.024;8.246;2024-01-15T01:40:11;99519.97;;;-2.68;100.00
22605;BME280;11469;49.024;8.246;2024-01-15T01:42:37;99509.28;;;-2.70;100.00
22605;BME280;11469;49.024;8.246;2024-01-15T01:45:02;99521.88;;;-2.69;100.00
22605;BME280;11469;49.024;8.246;2024-01-15T01:47:29;99519.13;;;-2.69;100.00
22605;BME280;11469;49.024;8.246;2024-01-15T01:49:54;99521.00;;;-2.64;100.00
22605;BME280;11469;49.024;8.246;2024-01-15T01:52:20;99517.72;;;-2.66;100.00
22605;BME280;11469;49.024;8.246;2024-01-15T01:54:45;99520.53;;;-2.71;100.00
22605;BME280;11469;49.024;8.246;2024-01-15T01:57:12;99512.75;;;-2.64;100.00
22605;BME280;11469;49.024;8.246;2024-01-15T01:59:38;99516.63;;;-2.65;100.00
22605;BME280;11469;49.024;8.246;2024-01-15T02:02:04;99518.84;;;-2.67;100.00
22605;BME280;11469;49.024;8.246;2024-01-15T02:04:31;99508.91;;;-2.63;100.00
22605;BME280;11469;49.024;8.246;2024-01-15T02:06:56;99510.84;;;-2.63;100.00
22605;BME280;11469;49.024;8.246;2024-01-15T02:09:22;99504.59;;;-2.69;100.00
22605;BME280;11469;49.024;8.246;2024-01-15T02:11:47;99494.09;;;-2.62;100.00
22605;BME280;11469;49.024;8.246;2024-01-15T02:14:13;99500.16;;;-2.65;100.00
22605;BME280;11469;49.024;8.246;2024-01-15T02:16:39;99500.75;;;-2.68;100.00
22605;BME280;11469;49.024;8.246;2024-01-15T02:19:04;99494.97;;;-2.67;100.00
22605;BME280;11469;49.024;8.246;2024-01-15T02:21:31;99499.63;;;-2.67;100.00
22605;BME280;11469;49.024;8.246;2024-01-15T02:23:56;99500.38;;;-2.61;100.00
22605;BME280;11469;49.024;8.246;2024-01-15T02:26:22;99506.09;;;-2.58;100.00
22605;BME280;11469;49.024;8.246;2024-01-15T02:28:48;99492.59;;;-2.54;100.00
22605;BME280;11469;49.024;8.246;2024-01-15T02:31:14;99505.00;;;-2.57;100.00
22605;BME280;11469;49.024;8.246;2024-01-15T02:33:39;99489.28;;;-2.51;100.00
22605;BME280;11469;49.024;8.246;2024-01-15T02:36:05;99494.47;;;-2.50;100.00
22605;BME280;11469;49.024;8.246;2024-01-15T02:38:31;99499.13;;;-2.50;100.00
22605;BME280;11469;49.024;8.246;2024-01-15T02:40:56;99501.66;;;-2.54;100.00
22605;BME280;11469;49.024;8.246;2024-01-15T02:43:22;99496.09;;;-2.49;100.00
22605;BME280;11469;49.024;8.246;2024-01-15T02:45:47;99494.75;;;-2.51;100.00
22605;BME280;11469;49.024;8.246;2024-01-15T02:48:13;99496.09;;;-2.49;100.00
22605;BME280;11469;49.024;8.246;2024-01-15T02:50:38;99507.00;;;-2.44;100.00
22605;BME280;11469;49.024;8.246;2024-01-15T02:53:04;99508.41;;;-2.46;100.00
22605;BME280;11469;49.024;8.246;2024-01-15T02:55:29;99499.50;;;-2.38;100.00
22605;BME280;11469;49.024;8.246;2024-01-15T02:57:54;99497.56;;;-2.38;100.00
22605;BME280;11469;49.024;8.246;2024-01-15T03:00:20;99502.84;;;-2.41;100.00
22605;BME280;11469;49.024;8.246;2024-01-15T03:02:45;99500.81;;;-2.36;100.00
22605;BME280;11469;49.024;8.246;2024-01-15T03:05:11;99497.56;;;-2.38;100.00
22605;BME280;11469;49.024;8.246;2024-01-15T03:07:37;99505.19;;;-2.35;100.00
22605;BME280;11469;49.024;8.246;2024-01-15T03:10:02;99493.91;;;-2.33;100.00
22605;BME280;11469;49.024;8.246;2024-01-15T03:12:28;99493.81;;;-2.28;100.00
22605;BME280;11469;49.024;8.246;2024-01-15T03:14:53;99496.13;;;-2.16;100.00
22605;BME280;11469;49.024;8.246;2024-01-15T03:17:19;99502.28;;;-2.24;100.00
22605;BME280;11469;49.024;8.246;2024-01-15T03:19:44;99496.78;;;-2.24;100.00
22605;BME280;11469;49.024;8.246;2024-01-15T03:22:09;99494.34;;;-2.26;100.00
22605;BME280;11469;49.024;8.246;2024-01-15T03:24:35;99494.84;;;-2.24;100.00
22605;BME280;11469;49.024;8.246;2024-01-15T03:27:01;99491.59;;;-2.26;100.00
22605;BME280;11469;49.024;8.246;2024-01-15T03:29:26;99489.81;;;-2.17;100.00
22605;BME280;11469;49.024;8.246;2024-01-15T03:31:52;99489.81;;;-2.17;100.00
22605;BME280;11469;49.024;8.246;2024-01-15T03:34:18;99493.38;;;-2.16;100.00
22605;BME280;11469;49.024;8.246;2024-01-15T03:36:43;99494.78;;;-2.19;100.00
22605;BME280;11469;49.024;8.246;2024-01-15T03:39:09;99490.63;;;-2.16;100.00
22605;BME280;11469;49.024;8.246;2024-01-15T03:41:34;99493.28;;;-2.11;100.00
22605;BME280;11469;49.024;8.246;2024-01-15T03:43:59;99482.31;;;-2.11;100.00
22605;BME280;11469;49.024;8.246;2024-01-15T03:46:25;99475.91;;;-2.07;100.00
22605;BME280;11469;49.024;8.246;2024-01-15T03:48:50;99475.41;;;-2.09;100.00
22605;BME280;11469;49.024;8.246;2024-01-15T03:51:19;99483.56;;;-2.04;100.00
22605;BME280;11469;49.024;8.246;2024-01-15T03:53:44;99470.94;;;-2.05;100.00
22605;BME280;11469;49.024;8.246;2024-01-15T03:56:10;99463.00;;;-2.06;100.00
22605;BME280;11469;49.024;8.246;2024-01-15T03:58:36;99453.03;;;-2.02;100.00
22605;BME280;11469;49.024;8.246;2024-01-15T04:01:01;99455.28;;;-2.04;100.00
22605;BME280;11469;49.024;8.246;2024-01-15T04:03:26;99441.47;;;-1.99;100.00
22605;BME280;11469;49.024;8.246;2024-01-15T04:05:52;99448.59;;;-1.98;100.00
22605;BME280;11469;49.024;8.246;2024-01-15T04:08:17;99445.84;;;-1.98;100.00
22605;BME280;11469;49.024;8.246;2024-01-15T04:10:42;99440.66;;;-1.99;100.00
22605;BME280;11469;49.024;8.246;2024-01-15T04:13:08;99439.53;;;-1.98;100.00
22605;BME280;11469;49.024;8.246;2024-01-15T04:15:33;99425.06;;;-2.04;100.00
22605;BME280;11469;49.024;8.246;2024-01-15T04:17:59;99441.97;;;-1.97;100.00
22605;BME280;11469;49.024;8.246;2024-01-15T04:20:26;99444.19;;;-1.99;100.00
22605;BME280;11469;49.024;8.246;2024-01-15T04:22:52;99431.88;;;-2.02;100.00
22605;BME280;11469;49.024;8.246;2024-01-15T04:25:17;99430.19;;;-1.97;100.00
22605;BME280;11469;49.024;8.246;2024-01-15T04:27:42;99425.28;;;-2.01;100.00
22605;BME280;11469;49.024;8.246;2024-01-15T04:30:08;99420.50;;;-1.95;100.00
22605;BME280;11469;49.024;8.246;2024-01-15T04:32:33;99408.72;;;-1.95;100.00
22605;BME280;11469;49.024;8.246;2024-01-15T04:34:59;99408.94;;;-1.92;100.00
22605;BME280;11469;49.024;8.246;2024-01-15T04:37:24;99401.50;;;-1.91;100.00
22605;BME280;11469;49.024;8.246;2024-01-15T04:39:49;99412.50;;;-1.91;100.00
22605;BME280;11469;49.024;8.246;2024-01-15T04:42:18;99401.69;;;-1.88;100.00
22605;BME280;11469;49.024;8.246;2024-01-15T04:44:43;99407.38;;;-1.84;100.00
22605;BME280;11469;49.024;8.246;2024-01-15T04:47:08;99414.94;;;-1.90;100.00
22605;BME280;11469;49.024;8.246;2024-01-15T04:49:34;99415.63;;;-1.84;100.00
22605;BME280;11469;49.024;8.246;2024-01-15T04:51:59;99409.31;;;-1.85;100.00
22605;BME280;11469;49.024;8.246;2024-01-15T04:54:24;99415.91;;;-1.86;100.00
22605;BME280;11469;49.024;8.246;2024-01-15T04:56:50;99412.66;;;-1.88;100.00
22605;BME280;11469;49.024;8.246;2024-01-15T04:59:15;99398.44;;;-1.90;100.00
22605;BME280;11469;49.024;8.246;2024-01-15T05:01:41;99397.22;;;-1.84;100.00
22605;BME280;11469;49.024;8.246;2024-01-15T05:04:06;99396.28;;;-1.79;100.00
22605;BME280;11469;49.024;8.246;2024-01-15T05:06:32;99400.78;;;-1.83;100.00
22605;BME280;11469;49.024;8.246;2024-01-15T05:08:57;99398.22;;;-1.80;100.00
22605;BME280;11469;49.024;8.246;2024-01-15T05:11:23;99410.03;;;-1.79;100.00
22605;BME280;11469;49.024;8.246;2024-01-15T05:13:48;99383.88;;;-1.77;100.00
22605;BME280;11469;49.024;8.246;2024-01-15T05:16:13;99381.84;;;-1.71;100.00
22605;BME280;11469;49.024;8.246;2024-01-15T05:18:39;99380.22;;;-1.72;100.00
22605;BME280;11469;49.024;8.246;2024-01-15T05:21:04;99382.66;;;-1.71;100.00
22605;BME280;11469;49.024;8.246;2024-01-15T05:23:31;99379.94;;;-1.71;100.00
22605;BME280;11469;49.024;8.246;2024-01-15T05:25:56;99375.25;;;-1.70;100.00
22605;BME280;11469;49.024;8.246;2024-01-15T05:28:22;99386.53;;;-1.72;100.00
22605;BME280;11469;49.024;8.246;2024-01-15T05:30:47;99389.28;;;-1.72;100.00
22605;BME280;11469;49.024;8.246;2024-01-15T05:33:13;99386.84;;;-1.73;100.00
22605;BME280;11469;49.024;8.246;2024-01-15T05:35:38;99381.56;;;-1.70;100.00
22605;BME280;11469;49.024;8.246;2024-01-15T05:38:04;99386.75;;;-1.68;100.00
22605;BME280;11469;49.024;8.246;2024-01-15T05:40:29;99382.28;;;-1.64;100.00
22605;BME280;11469;49.024;8.246;2024-01-15T05:42:54;99385.31;;;-1.65;100.00
22605;BME280;11469;49.024;8.246;2024-01-15T05:45:20;99366.59;;;-1.63;100.00
22605;BME280;11469;49.024;8.246;2024-01-15T05:47:45;99364.97;;;-1.64;100.00
22605;BME280;11469;49.024;8.246;2024-01-15T05:50:11;99341.34;;;-1.65;100.00
22605;BME280;11469;49.024;8.246;2024-01-15T05:52:36;99329.44;;;-1.61;100.00
22605;BME280;11469;49.024;8.246;2024-01-15T05:55:02;99328.13;;;-1.63;100.00
22605;BME280;11469;49.024;8.246;2024-01-15T05:57:30;99335.56;;;-1.64;100.00
22605;BME280;11469;49.024;8.246;2024-01-15T05:59:56;99340.25;;;-1.64;100.00
22605;BME280;11469;49.024;8.246;2024-01-15T06:02:21;99335.56;;;-1.64;100.00
22605;BME280;11469;49.024;8.246;2024-01-15T06:04:46;99342.38;;;-1.61;100.00
22605;BME280;11469;49.024;8.246;2024-01-15T06:07:12;99329.97;;;-1.59;100.00
22605;BME280;11469;49.024;8.246;2024-01-15T06:09:37;99336.38;;;-1.50;100.00
22605;BME280;11469;49.024;8.246;2024-01-15T06:12:04;99343.78;;;-1.50;100.00
22605;BME280;11469;49.024;8.246;2024-01-15T06:14:30;99350.91;;;-1.49;100.00
22605;BME280;11469;49.024;8.246;2024-01-15T06:16:55;99344.09;;;-1.52;100.00
22605;BME280;11469;49.024;8.246;2024-01-15T06:19:20;99344.91;;;-1.51;100.00
22605;BME280;11469;49.024;8.246;2024-01-15T06:21:46;99351.53;;;-1.52;100.00
22605;BME280;11469;49.024;8.246;2024-01-15T06:24:11;99356.22;;;-1.53;100.00
22605;BME280;11469;49.024;8.246;2024-01-15T06:26:38;99355.09;;;-1.52;100.00
22605;BME280;11469;49.024;8.246;2024-01-15T06:29:04;99365.78;;;-1.50;100.00
22605;BME280;11469;49.024;8.246;2024-01-15T06:31:29;99367.41;;;-1.49;100.00
22605;BME280;11469;49.024;8.246;2024-01-15T06:33:55;99361.59;;;-1.48;100.00
22605;BME280;11469;49.024;8.246;2024-01-15T06:36:20;99364.84;;;-1.46;100.00
22605;BME280;11469;49.024;8.246;2024-01-15T06:38:46;99355.81;;;-1.46;100.00
22605;BME280;11469;49.024;8.246;2024-01-15T06:41:11;99360.78;;;-1.48;100.00
22605;BME280;11469;49.024;8.246;2024-01-15T06:43:36;99365.69;;;-1.45;100.00
22605;BME280;11469;49.024;8.246;2024-01-15T06:46:02;99365.69;;;-1.45;100.00
22605;BME280;11469;49.024;8.246;2024-01-15T06:48:27;99359.88;;;-1.44;100.00
22605;BME280;11469;49.024;8.246;2024-01-15T06:50:52;99363.44;;;-1.43;100.00
22605;BME280;11469;49.024;8.246;2024-01-15T06:53:18;99354.53;;;-1.40;100.00
22605;BME280;11469;49.024;8.246;2024-01-15T06:55:44;99356.06;;;-1.34;100.00
22605;BME280;11469;49.024;8.246;2024-01-15T06:58:09;99361.88;;;-1.36;100.00
22605;BME280;11469;49.024;8.246;2024-01-15T07:00:34;99377.13;;;-1.29;100.00
22605;BME280;11469;49.024;8.246;2024-01-15T07:03:00;99368.38;;;-1.31;100.00
22605;BME280;11469;49.024;8.246;2024-01-15T07:05:25;99355.75;;;-1.33;100.00
22605;BME280;11469;49.024;8.246;2024-01-15T07:07:51;99357.06;;;-1.30;100.00
22605;BME280;11469;49.024;8.246;2024-01-15T07:10:16;99373.47;;;-1.25;100.00
22605;BME280;11469;49.024;8.246;2024-01-15T07:12:42;99371.00;;;-1.26;100.00
22605;BME280;11469;49.024;8.246;2024-01-15T07:15:08;99366.63;;;-1.27;100.00
22605;BME280;11469;49.024;8.246;2024-01-15T07:17:34;99360.09;;;-1.18;100.00
22605;BME280;11469;49.024;8.246;2024-01-15T07:19:59;99364.19;;;-1.15;100.00
22605;BME280;11469;49.024;8.246;2024-01-15T07:22:25;99365.19;;;-1.11;100.00
22605;BME280;11469;49.024;8.246;2024-01-15T07:24:50;99368.56;;;-1.14;100.00
22605;BME280;11469;49.024;8.246;2024-01-15T07:27:16;99375.56;;;-1.08;100.00
22605;BME280;11469;49.024;8.246;2024-01-15T07:29:41;99373.44;;;-1.11;100.00
22605;BME280;11469;49.024;8.246;2024-01-15T07:32:08;99369.06;;;-1.12;100.00
22605;BME280;11469;49.024;8.246;2024-01-15T07:34:33;99374.25;;;-1.11;100.00
22605;BME280;11469;49.024;8.246;2024-01-15T07:36:58;99368.53;;;-1.01;100.00
22605;BME280;11469;49.024;8.246;2024-01-15T07:39:24;99370.78;;;-1.03;100.00
22605;BME280;11469;49.024;8.246;2024-01-15T07:41:53;99371.59;;;-1.02;100.00
22605;BME280;11469;49.024;8.246;2024-01-15T07:44:18;99375.47;;;-1.03;100.00
22605;BME280;11469;49.024;8.246;2024-01-15T07:46:44;99374.72;;;-0.95;100.00
22605;BME280;11469;49.024;8.246;2024-01-15T07:49:10;99367.94;;;-0.89;100.00
22605;BME280;11469;49.024;8.246;2024-01-15T07:51:36;99362.13;;;-0.87;100.00
22605;BME280;11469;49.024;8.246;2024-01-15T07:54:01;99362.84;;;-0.82;100.00
22605;BME280;11469;49.024;8.246;2024-01-15T07:56:27;99369.34;;;-0.78;100.00
22605;BME280;11469;49.024;8.246;2024-01-15T07:58:52;99370.31;;;-0.60;100.00
22605;BME280;11469;49.024;8.246;2024-01-15T08:01:18;99367.03;;;-0.62;100.00
22605;BME280;11469;49.024;8.246;2024-01-15T08:03:43;99356.47;;;-0.69;100.00
22605;BME280;11469;49.024;8.246;2024-01-15T08:06:09;99363.16;;;-0.61;100.00
22605;BME280;11469;49.024;8.246;2024-01-15T08:08:35;99359.91;;;-0.63;100.00
22605;BME280;11469;49.024;8.246;2024-01-15T08:11:00;99357.78;;;-0.66;100.00
22605;BME280;11469;49.024;8.246;2024-01-15T08:13:26;99356.03;;;-0.62;100.00
22605;BME280;11469;49.024;8.246;2024-01-15T08:15:52;99352.47;;;-0.62;100.00
22605;BME280;11469;49.024;8.246;2024-01-15T08:18:17;99355.03;;;-0.66;100.00
22605;BME280;11469;49.024;8.246;2024-01-15T08:20:43;99346.47;;;-0.64;100.00
22605;BME280;11469;49.024;8.246;2024-01-15T08:23:08;99346.78;;;-0.66;100.00
22605;BME280;11469;49.024;8.246;2024-01-15T08:25:34;99332.88;;;-0.61;100.00
22605;BME280;11469;49.024;8.246;2024-01-15T08:28:00;99341.78;;;-0.64;100.00
22605;BME280;11469;49.024;8.246;2024-01-15T08:30:25;99326.88;;;-0.63;100.00
22605;BME280;11469;49.024;8.246;2024-01-15T08:32:53;99335.16;;;-0.63;100.00
22605;BME280;11469;49.024;8.246;2024-01-15T08:35:19;99341.78;;;-0.64;100.00
22605;BME280;11469;49.024;8.246;2024-01-15T08:37:49;99320.56;;;-0.63;100.00
22605;BME280;11469;49.024;8.246;2024-01-15T08:40:15;99332.88;;;-0.61;100.00
22605;BME280;11469;49.024;8.246;2024-01-15T08:42:41;99337.53;;;-0.48;100.00
22605;BME280;11469;49.024;8.246;2024-01-15T08:45:06;99343.47;;;-0.54;100.00
22605;BME280;11469;49.024;8.246;2024-01-15T08:47:32;99350.41;;;-0.57;100.00
22605;BME280;11469;49.024;8.246;2024-01-15T08:49:57;99357.22;;;-0.54;100.00
22605;BME280;11469;49.024;8.246;2024-01-15T08:52:24;99357.41;;;-0.51;100.00
22605;BME280;11469;49.024;8.246;2024-01-15T08:54:50;99352.53;;;-0.54;100.00
22605;BME280;11469;49.024;8.246;2024-01-15T08:57:15;99358.72;;;-0.48;100.00
22605;BME280;11469;49.024;8.246;2024-01-15T08:59:41;99347.38;;;-0.47;100.00
22605;BME280;11469;49.024;8.246;2024-01-15T09:02:06;99358.22;;;-0.50;100.00
22605;BME280;11469;49.024;8.246;2024-01-15T09:04:33;99359.53;;;-0.48;100.00
22605;BME280;11469;49.024;8.246;2024-01-15T09:06:58;99347.25;;;-0.42;100.00
22605;BME280;11469;49.024;8.246;2024-01-15T09:09:23;99346.75;;;-0.44;100.00
22605;BME280;11469;49.024;8.246;2024-01-15T09:11:50;99345.13;;;-0.45;100.00
22605;BME280;11469;49.024;8.246;2024-01-15T09:14:15;99342.06;;;-0.43;100.00
22605;BME280;11469;49.024;8.246;2024-01-15T09:16:41;99340.75;;;-0.46;100.00
22605;BME280;11469;49.024;8.246;2024-01-15T09:19:06;99337.84;;;-0.49;100.00
22605;BME280;11469;49.024;8.246;2024-01-15T09:21:31;99337.03;;;-0.50;100.00
22605;BME280;11469;49.024;8.246;2024-01-15T09:23:57;99341.56;;;-0.45;100.00
22605;BME280;11469;49.024;8.246;2024-01-15T09:26:23;99344.63;;;-0.47;100.00
22605;BME280;11469;49.024;8.246;2024-01-15T09:28:49;99333.28;;;-0.45;100.00
22605;BME280;11469;49.024;8.246;2024-01-15T09:31:14;99338.00;;;-0.46;100.00
22605;BME280;11469;49.024;8.246;2024-01-15T09:33:40;99325.72;;;-0.40;100.00
22605;BME280;11469;49.024;8.246;2024-01-15T09:36:05;99326.84;;;-0.41;100.00
22605;BME280;11469;49.024;8.246;2024-01-15T09:38:31;99335.09;;;-0.41;100.00
22605;BME280;11469;49.024;8.246;2024-01-15T09:40:57;99342.56;;;-0.41;100.00
22605;BME280;11469;49.024;8.246;2024-01-15T09:43:22;99334.78;;;-0.39;100.00
22605;BME280;11469;49.024;8.246;2024-01-15T09:45:49;99332.41;;;-0.32;100.00
22605;BME280;11469;49.024;8.246;2024-01-15T09:48:15;99323.66;;;-0.34;100.00
22605;BME280;11469;49.024;8.246;2024-01-15T09:50:41;99314.75;;;-0.31;100.00
22605;BME280;11469;49.024;8.246;2024-01-15T09:53:07;99317.31;;;-0.35;100.00
22605;BME280;11469;49.024;8.246;2024-01-15T09:55:36;99313.75;;;-0.35;100.00
22605;BME280;11469;49.024;8.246;2024-01-15T09:58:03;99306.81;;;-0.32;100.00
22605;BME280;11469;49.024;8.246;2024-01-15T10:00:29;99300.69;;;-0.29;100.00
22605;BME280;11469;49.024;8.246;2024-01-15T10:02:56;99305.56;;;-0.26;100.00
22605;BME280;11469;49.024;8.246;2024-01-15T10:05:23;99295.66;;;-0.27;100.00
22605;BME280;11469;49.024;8.246;2024-01-15T10:07:49;99301.31;;;-0.32;100.00
22605;BME280;11469;49.024;8.246;2024-01-15T10:10:15;99299.19;;;-0.36;100.00
22605;BME280;11469;49.024;8.246;2024-01-15T10:12:41;99288.81;;;-0.39;100.00
22605;BME280;11469;49.024;8.246;2024-01-15T10:15:09;99277.97;;;-0.35;100.00
22605;BME280;11469;49.024;8.246;2024-01-15T10:17:37;99280.03;;;-0.41;100.00
22605;BME280;11469;49.024;8.246;2024-01-15T10:20:08;99288.81;;;-0.39;100.00
22605;BME280;11469;49.024;8.246;2024-01-15T10:22:35;99281.19;;;-0.42;100.00
22605;BME280;11469;49.024;8.246;2024-01-15T10:25:03;99283.47;;;-0.35;100.00
22605;BME280;11469;49.024;8.246;2024-01-15T10:27:29;99281.84;;;-0.36;100.00
22605;BME280;11469;49.024;8.246;2024-01-15T10:29:59;99283.34;;;-0.30;100.00
22605;BME280;11469;49.024;8.246;2024-01-15T10:32:25;99287.03;;;-0.35;100.00
22605;BME280;11469;49.024;8.246;2024-01-15T10:34:52;99280.34;;;-0.42;100.00
22605;BME280;11469;49.024;8.246;2024-01-15T10:37:18;99276.28;;;-0.45;100.00
22605;BME280;11469;49.024;8.246;2024-01-15T10:39:43;99283.59;;;-0.40;100.00
22605;BME280;11469;49.024;8.246;2024-01-15T10:42:09;99282.47;;;-0.39;100.00
22605;BME280;11469;49.024;8.246;2024-01-15T10:44:35;99276.03;;;-0.35;100.00
22605;BME280;11469;49.024;8.246;2024-01-15T10:47:01;99259.38;;;-0.29;100.00
22605;BME280;11469;49.024;8.246;2024-01-15T10:49:26;99255.34;;;-0.23;100.00
22605;BME280;11469;49.024;8.246;2024-01-15T10:51:53;99246.47;;;-0.20;100.00
22605;BME280;11469;49.024;8.246;2024-01-15T10:54:20;99259.78;;;-0.14;100.00
22605;BME280;11469;49.024;8.246;2024-01-15T10:56:46;99246.50;;;-0.12;100.00
22605;BME280;11469;49.024;8.246;2024-01-15T10:59:13;99252.50;;;-0.10;100.00
22605;BME280;11469;49.024;8.246;2024-01-15T11:01:38;99247.97;;;-0.06;100.00
22605;BME280;11469;49.024;8.246;2024-01-15T11:04:04;99249.41;;;0.00;100.00
22605;BME280;11469;49.024;8.246;2024-01-15T11:06:41;99254.63;;;0.02;100.00
22605;BME280;11469;49.024;8.246;2024-01-15T11:09:07;99246.03;;;0.04;100.00
22605;BME280;11469;49.024;8.246;2024-01-15T11:11:35;99250.75;;;0.12;100.00
22605;BME280;11469;49.024;8.246;2024-01-15T11:14:01;99249.28;;;0.06;100.00
22605;BME280;11469;49.024;8.246;2024-01-15T11:16:53;99249.13;;;0.11;100.00
22605;BME280;11469;49.024;8.246;2024-01-15T11:19:18;99243.63;;;0.11;100.00
22605;BME280;11469;49.024;8.246;2024-01-15T11:21:44;99246.88;;;0.13;100.00
22605;BME280;11469;49.024;8.246;2024-01-15T11:24:09;99248.50;;;0.14;100.00
22605;BME280;11469;49.024;8.246;2024-01-15T11:26:44;99241.50;;;0.08;100.00
22605;BME280;11469;49.024;8.246;2024-01-15T11:29:30;99246.69;;;0.09;100.00
22605;BME280;11469;49.024;8.246;2024-01-15T11:32:04;99243.97;;;0.18;100.00
22605;BME280;11469;49.024;8.246;2024-01-15T11:34:56;99251.91;;;0.19;100.00
22605;BME280;11469;49.024;8.246;2024-01-15T11:37:27;99236.84;;;0.17;100.00
22605;BME280;11469;49.024;8.246;2024-01-15T11:40:01;99248.97;;;0.16;100.00
22605;BME280;11469;49.024;8.246;2024-01-15T11:42:29;99247.72;;;0.22;100.00
22605;BME280;11469;49.024;8.246;2024-01-15T11:44:54;99259.53;;;0.22;100.00
22605;BME280;11469;49.024;8.246;2024-01-15T11:47:40;99255.81;;;0.27;100.00
22605;BME280;11469;49.024;8.246;2024-01-15T11:50:14;99263.13;;;0.31;100.00
22605;BME280;11469;49.024;8.246;2024-01-15T11:52:46;99258.44;;;0.41;100.00
22605;BME280;11469;49.024;8.246;2024-01-15T11:55:22;99277.09;;;0.44;100.00
22605;BME280;11469;49.024;8.246;2024-01-15T11:57:53;99271.75;;;0.47;100.00
22605;BME280;11469;49.024;8.246;2024-01-15T12:00:22;99272.53;;;0.48;100.00
22605;BME280;11469;49.024;8.246;2024-01-15T12:02:49;99269.31;;;0.54;100.00
22605;BME280;11469;49.024;8.246;2024-01-15T12:05:17;99271.25;;;0.54;100.00
22605;BME280;11469;49.024;8.246;2024-01-15T12:07:44;99267.53;;;0.58;100.00
22605;BME280;11469;49.024;8.246;2024-01-15T12:10:11;99275.31;;;0.65;100.00
22605;BME280;11469;49.024;8.246;2024-01-15T12:15:09;99275.81;;;0.67;100.00
22605;BME280;11469;49.024;8.246;2024-01-15T12:17:35;99266.25;;;0.73;100.00
22605;BME280;11469;49.024;8.246;2024-01-15T12:20:00;99259.59;;;0.74;100.00
22605;BME280;11469;49.024;8.246;2024-01-15T12:22:26;99264.81;;;0.84;100.00
22605;BME280;11469;49.024;8.246;2024-01-15T12:24:53;99268.38;;;0.85;100.00
22605;BME280;11469;49.024;8.246;2024-01-15T12:27:20;99265.13;;;0.83;100.00
22605;BME280;11469;49.024;8.246;2024-01-15T12:29:45;99259.28;;;0.84;100.00
22605;BME280;11469;49.024;8.246;2024-01-15T12:32:12;99268.84;;;0.87;100.00
22605;BME280;11469;49.024;8.246;2024-01-15T12:34:37;99264.97;;;0.88;100.00
22605;BME280;11469;49.024;8.246;2024-01-15T12:37:03;99254.09;;;0.91;100.00
22605;BME280;11469;49.024;8.246;2024-01-15T12:39:29;99254.56;;;0.93;100.00
22605;BME280;11469;49.024;8.246;2024-01-15T12:41:55;99254.69;;;0.97;100.00
22605;BME280;11469;49.024;8.246;2024-01-15T12:44:20;99250.81;;;1.07;100.00
22605;BME280;11469;49.024;8.246;2024-01-15T12:46:46;99257.78;;;1.13;100.00